Unicom:                    122.8

AWOS:                  118.275

Elevation           1458’ MSL

TPA:                   2500’ MSL

06/24:         5003’ L   75’ W

PAPI:       06/Left     24/Left

(Operate lights on unicom freq.)

Traffic Pattern: Left

Beacon: Sunset to Sunrise

Windsock: yes, lighted

Segmented Circle: No

 

Cleveland Center: 126.72/291.65

FSS: Altoona

[Source: ADDS]
METAR
KFKL 112056Z AUTO 27015G22KT 9SM -SN OVC032 M04/M09 A3033 RMK AO2 SLP296 P0000 60000 T10441094 53022 FZRANO =
KFKL 111737Z 1118/1218 25012G20KT P6SM VCSH BKN035 FM120000 27010KT P6SM BKN035 FM120400 VRB04KT P6SM SKC FM121600 16008KT P6SM SCT250
TAF
KFKL 111737Z 1118/1218 25012G20KT P6SM VCSH BKN035 FM120000 27010KT P6SM BKN035 FM120400 VRB04KT P6SM SKC FM121600 16008KT P6SM SCT250 =
[Source: ADDS]
METAR
KDUJ 112053Z AUTO 25017G26KT 10SM BKN039 BKN049 OVC065 M04/M12 A3028 RMK AO2 PK WND 27028/2005 SLP278 T10441117 53019 =
KDUJ 111737Z 1118/1218 25012G20KT P6SM SCT035 FM112000 26015G25KT P6SM VCSH BKN035 FM120300 27010KT P6SM SCT025 FM120700 VRB04KT P6SM SKC FM121600 16006KT P6SM SCT250
TAF
KDUJ 111737Z 1118/1218 25012G20KT P6SM SCT035 FM112000 26015G25KT P6SM VCSH BKN035 FM120300 27010KT P6SM SCT025 FM120700 VRB04KT P6SM SKC FM121600 16006KT P6SM SCT250 =

Nearby Overnight Accommodations.

Park Inn by Radisson

45 Holiday Inn Rd

Clarion, PA 16214

Phone # (814) 226-8850

Park Inn by Radisson

45 Holiday Inn Rd Clarion, PA 16214 Phone # (814) 226-8850

Microtel

121 North Point Drive

Clarion, PA 16214

Phone # (814) 227-2223

Microtel

121 North Point Drive Clarion, PA 16214 Phone # (814) 227-2223

Hampton Inn and Suites

4 Hospital Drive

Clarion, PA 16214

Phone # (814) 226-4444

Hampton Inn & Suites

4 Hospital Drive Clarion, PA 16214 Phone # (814) 226-4444

Comfort Inn

129 Dolby Street

Clarion, PA 16214

Phone # (814) 226-5230

Comfort Inn

129 Dolby Street Clarion, PA 16214 Phone # (814) 226-5230

Quality Inn

24 United Drive

Clarion, PA 16214 

Phone # (814) 226-8682 


Quality Inn

24 United Drive Clarion, PA 16214 Phone # (814) 226-8682

Holiday Inn Express

325 Perkins Road

Clarion, PA 16214

Phone (814) 223-4010


Holiday Inn Express

325 Perkins Road Clarion, PA 16214 Phone (814) 223-4010

Super 8 Motel

135 Hotel Road

Clarion, PA 16214

Phone # (800) 536-9326

Super 8 Motel

135 Hotel Road Clarion, PA 16214 Phone # (800) 536-9326


Transportation.

Enterprise

545 South Fifth Avenue

Clarion, PA 16214

Phone # (814) 227-1284

Enterprise

545 South Fifth Avenue Clarion, PA 16214 Phone # (814) 227-1284

Clarion County Taxi, Inc.

East End Road

Clarion County Taxi, Inc.

Shippenville, PA 16254

Phone # (814) 226-8635

 *cash, check, debit


Choice Cab Co.

Clarion, PA 16214

Phone # (814) 221- 4992

 *cash only